createdAt,value
2024-02-20T00:00:14.180Z,33.31
2024-02-20T00:02:43.240Z,33.49
2024-02-20T00:05:11.310Z,33.75
2024-02-20T00:07:41.890Z,34.03
2024-02-20T00:10:10.587Z,34.10
2024-02-20T00:12:38.745Z,34.00
2024-02-20T00:15:08.353Z,34.02
2024-02-20T00:17:36.336Z,34.03
2024-02-20T00:20:07.224Z,34.00
2024-02-20T00:22:35.288Z,34.00
2024-02-20T00:25:04.113Z,33.85
2024-02-20T00:27:33.417Z,33.78
2024-02-20T00:30:01.254Z,33.45
2024-02-20T00:32:28.882Z,33.35
2024-02-20T00:34:57.387Z,33.35
2024-02-20T00:37:25.132Z,33.27
2024-02-20T00:39:52.722Z,33.33
2024-02-20T00:42:22.724Z,33.12
2024-02-20T00:44:52.469Z,33.12
2024-02-20T00:47:20.210Z,33.00
2024-02-20T00:49:47.810Z,32.96
2024-02-20T00:52:15.533Z,32.98
2024-02-20T00:54:43.432Z,33.01
2024-02-20T00:57:11.714Z,33.01
2024-02-20T00:59:39.691Z,32.92
2024-02-20T01:02:12.878Z,33.00
2024-02-20T01:04:41.509Z,32.92
2024-02-20T01:07:09.466Z,32.99
2024-02-20T01:09:37.831Z,33.05
2024-02-20T01:12:05.773Z,33.06
2024-02-20T01:14:33.561Z,33.12
2024-02-20T01:17:01.018Z,33.14
2024-02-20T01:19:28.560Z,33.24
2024-02-20T01:21:56.434Z,33.11
2024-02-20T01:24:24.102Z,33.17
2024-02-20T01:26:51.640Z,33.22
2024-02-20T01:29:23.288Z,33.33
2024-02-20T01:31:51.048Z,33.33
2024-02-20T01:34:18.755Z,33.45
2024-02-20T01:36:46.578Z,33.33
2024-02-20T01:39:14.034Z,33.44
2024-02-20T01:41:41.473Z,33.49
2024-02-20T01:44:10.385Z,33.47
2024-02-20T01:46:38.239Z,33.42
2024-02-20T01:49:05.988Z,33.33
2024-02-20T01:51:33.857Z,33.42
2024-02-20T01:54:01.419Z,33.61
2024-02-20T01:56:28.808Z,33.44
2024-02-20T01:58:59.369Z,33.60
2024-02-20T02:01:27.802Z,33.64
2024-02-20T02:03:55.366Z,33.50
2024-02-20T02:06:32.375Z,33.39
2024-02-20T02:09:00.266Z,33.31
2024-02-20T02:11:27.997Z,33.28
2024-02-20T02:13:55.447Z,33.22
2024-02-20T02:16:22.919Z,33.24
2024-02-20T02:18:51.691Z,33.12
2024-02-20T02:21:20.163Z,33.13
2024-02-20T02:23:47.849Z,33.21
2024-02-20T02:26:15.268Z,33.13
2024-02-20T02:28:48.457Z,33.15
2024-02-20T02:31:17.857Z,33.31
2024-02-20T02:33:47.451Z,33.37
2024-02-20T02:36:15.473Z,33.27
2024-02-20T02:38:44.176Z,33.28
2024-02-20T02:41:13.439Z,33.35
2024-02-20T02:43:41.378Z,33.31
2024-02-20T02:46:12.046Z,33.35
2024-02-20T02:48:39.512Z,33.60
2024-02-20T02:51:09.797Z,33.39
2024-02-20T02:53:37.419Z,33.62
2024-02-20T02:56:09.881Z,33.55
2024-02-20T02:58:37.498Z,33.43
2024-02-20T03:01:05.665Z,33.32
2024-02-20T03:03:33.206Z,33.60
2024-02-20T03:06:08.276Z,33.36
2024-02-20T03:08:37.694Z,33.46
2024-02-20T03:11:07.217Z,33.60
2024-02-20T03:13:35.237Z,33.58
2024-02-20T03:16:09.290Z,33.64
2024-02-20T03:18:38.164Z,33.93
2024-02-20T03:21:07.614Z,33.71
2024-02-20T03:23:35.167Z,33.80
2024-02-20T03:26:03.236Z,33.58
2024-02-20T03:28:31.051Z,33.44
2024-02-20T03:30:58.916Z,33.60
2024-02-20T03:33:28.053Z,33.41
2024-02-20T03:35:55.701Z,33.19
2024-02-20T03:38:25.681Z,33.09
2024-02-20T03:40:53.194Z,32.58
2024-02-20T03:43:20.782Z,32.67
2024-02-20T03:45:48.204Z,32.56
2024-02-20T03:48:15.814Z,32.44
2024-02-20T03:50:43.401Z,32.45
2024-02-20T03:53:11.189Z,32.36
2024-02-20T03:55:38.678Z,32.27
2024-02-20T03:58:06.163Z,32.04
2024-02-20T04:00:33.689Z,32.21
2024-02-20T04:03:02.179Z,31.90
2024-02-20T04:05:29.678Z,32.09
2024-02-20T04:07:58.665Z,31.93
2024-02-20T04:10:26.141Z,31.84
2024-02-20T04:12:53.632Z,32.03
2024-02-20T04:15:21.132Z,31.92
2024-02-20T04:17:48.696Z,31.89
2024-02-20T04:20:16.628Z,31.86
2024-02-20T04:22:44.247Z,32.04
2024-02-20T04:25:11.896Z,31.79
2024-02-20T04:27:39.810Z,31.80
2024-02-20T04:30:08.856Z,31.83
2024-02-20T04:32:36.347Z,31.64
2024-02-20T04:35:04.150Z,31.70
2024-02-20T04:37:31.931Z,31.51
2024-02-20T04:39:59.450Z,31.44
2024-02-20T04:42:28.088Z,31.42
2024-02-20T04:44:55.606Z,31.28
2024-02-20T04:47:24.593Z,31.17
2024-02-20T04:49:53.784Z,31.15
2024-02-20T04:52:21.441Z,31.13
2024-02-20T04:54:49.043Z,30.98
2024-02-20T04:57:16.612Z,30.84
2024-02-20T04:59:47.472Z,30.77
2024-02-20T05:02:16.624Z,30.82
2024-02-20T05:04:44.424Z,30.86
2024-02-20T05:07:12.264Z,30.93
2024-02-20T05:09:39.779Z,30.79
2024-02-20T05:12:07.747Z,30.88
2024-02-20T05:14:35.252Z,30.74
2024-02-20T05:17:02.959Z,30.77
2024-02-20T05:19:30.604Z,30.71
2024-02-20T05:21:58.332Z,30.82
2024-02-20T05:24:26.398Z,30.86
2024-02-20T05:26:53.975Z,30.85
2024-02-20T05:29:22.908Z,30.77
2024-02-20T05:31:50.572Z,30.80
2024-02-20T05:34:18.235Z,30.78
2024-02-20T05:36:45.888Z,30.56
2024-02-20T05:39:13.533Z,30.69
2024-02-20T05:41:41.531Z,30.52
2024-02-20T05:44:09.051Z,30.58
2024-02-20T05:46:37.700Z,30.70
2024-02-20T05:49:05.918Z,30.67
2024-02-20T05:51:33.750Z,30.54
2024-02-20T05:54:01.380Z,30.59
2024-02-20T05:56:28.989Z,30.62
2024-02-20T05:58:56.599Z,30.75
2024-02-20T06:01:24.252Z,30.44
2024-02-20T06:03:51.868Z,30.52
2024-02-20T06:06:19.557Z,30.56
2024-02-20T06:08:47.481Z,30.37
2024-02-20T06:11:19.670Z,30.62
2024-02-20T06:13:49.589Z,30.44
2024-02-20T06:16:19.408Z,30.27
2024-02-20T06:18:49.965Z,30.24
2024-02-20T06:21:19.169Z,30.00
2024-02-20T06:23:49.385Z,30.07
2024-02-20T06:26:20.212Z,30.00
2024-02-20T06:28:50.542Z,29.93
2024-02-20T06:31:20.531Z,29.97
2024-02-20T06:33:51.585Z,30.02
2024-02-20T06:36:22.131Z,29.94
2024-02-20T06:38:51.121Z,29.77
2024-02-20T06:41:22.488Z,29.82
2024-02-20T06:43:52.802Z,29.77
2024-02-20T06:46:25.623Z,29.75
2024-02-20T06:48:56.712Z,29.88
2024-02-20T06:51:28.346Z,29.87
2024-02-20T06:53:58.400Z,29.70
2024-02-20T06:56:28.567Z,29.68
2024-02-20T06:58:59.539Z,29.65
2024-02-20T07:01:29.951Z,29.64
2024-02-20T07:04:00.705Z,29.74
2024-02-20T07:06:36.530Z,29.66
2024-02-20T07:09:06.248Z,29.59
2024-02-20T07:11:35.288Z,29.49
2024-02-20T07:21:43.368Z,29.48
2024-02-20T07:24:10.810Z,29.38
2024-02-20T07:26:38.285Z,29.34
2024-02-20T07:29:05.839Z,29.34
2024-02-20T07:31:36.099Z,29.47
2024-02-20T07:34:09.536Z,29.46
2024-02-20T07:36:38.794Z,29.46
2024-02-20T07:46:50.438Z,29.86
2024-02-20T07:49:18.444Z,29.74
2024-02-20T07:59:27.802Z,29.88
2024-02-20T08:01:55.527Z,29.99
2024-02-20T08:04:24.299Z,30.19
2024-02-20T08:06:53.202Z,30.10
2024-02-20T08:09:21.021Z,30.13
2024-02-20T08:11:48.597Z,30.10
2024-02-20T08:16:50.284Z,32.07
2024-02-20T08:19:17.774Z,30.61
2024-02-20T08:21:45.386Z,30.45
2024-02-20T08:24:12.991Z,30.37
2024-02-20T08:26:40.570Z,30.29
2024-02-20T08:29:09.747Z,30.34
2024-02-20T08:31:37.711Z,30.18
2024-02-20T08:34:07.320Z,30.30
2024-02-20T08:36:39.362Z,30.26
2024-02-20T08:39:07.486Z,30.39
2024-02-20T08:41:35.223Z,30.35
2024-02-20T08:44:02.827Z,30.37
2024-02-20T08:46:32.663Z,30.40
2024-02-20T08:49:00.279Z,30.57
2024-02-20T08:59:13.879Z,30.62
2024-02-20T09:01:41.917Z,30.86
2024-02-20T09:04:10.695Z,30.92
2024-02-20T09:06:38.660Z,31.00
2024-02-20T09:09:06.147Z,31.05
2024-02-20T09:11:33.850Z,30.98
2024-02-20T09:14:01.910Z,31.04
2024-02-20T09:16:29.612Z,30.84
2024-02-20T09:18:57.182Z,30.81
2024-02-20T09:21:24.726Z,30.81
2024-02-20T09:23:52.280Z,30.71
2024-02-20T09:26:21.808Z,30.80
2024-02-20T09:28:49.414Z,30.53
2024-02-20T09:31:17.144Z,30.54
2024-02-20T09:33:44.748Z,30.52
2024-02-20T09:36:12.656Z,30.70
2024-02-20T09:38:40.337Z,30.73
2024-02-20T09:41:08.488Z,30.80
2024-02-20T09:43:37.297Z,30.85
2024-02-20T09:46:08.368Z,30.80
2024-02-20T09:48:36.369Z,30.76
2024-02-20T09:51:04.980Z,30.73
2024-02-20T09:53:35.609Z,30.49
2024-02-20T09:56:03.251Z,30.38
2024-02-20T09:58:33.604Z,30.40
2024-02-20T10:01:08.329Z,30.56
2024-02-20T10:03:37.587Z,30.45
2024-02-20T10:06:05.964Z,30.69
2024-02-20T10:08:34.117Z,31.05
2024-02-20T10:11:03.192Z,30.94
2024-02-20T10:13:31.475Z,31.18
2024-02-20T10:16:06.152Z,31.18
2024-02-20T10:18:33.762Z,31.32
2024-02-20T10:21:06.574Z,31.30
2024-02-20T10:23:34.288Z,31.22
2024-02-20T10:26:03.198Z,31.33
2024-02-20T10:28:31.928Z,31.34
2024-02-20T10:30:59.682Z,31.01
2024-02-20T10:33:28.556Z,31.07
2024-02-20T10:36:04.872Z,31.07
2024-02-20T10:38:32.961Z,31.11
2024-02-20T10:41:01.145Z,31.37
2024-02-20T10:43:29.633Z,31.50
2024-02-20T10:45:58.073Z,31.47
2024-02-20T10:48:29.185Z,31.32
2024-02-20T10:50:57.311Z,31.40
2024-02-20T10:53:24.983Z,31.79
2024-02-20T10:55:52.835Z,31.96
2024-02-20T10:58:21.820Z,32.26
2024-02-20T11:00:49.529Z,32.33
2024-02-20T11:03:17.963Z,32.55
2024-02-20T11:05:45.654Z,32.75
2024-02-20T11:08:13.932Z,32.76
2024-02-20T11:10:42.913Z,32.90
2024-02-20T11:13:15.391Z,32.97
2024-02-20T11:15:43.510Z,32.94
2024-02-20T11:18:18.609Z,33.01
2024-02-20T11:20:46.917Z,32.69
2024-02-20T11:23:14.423Z,32.98
2024-02-20T11:25:45.251Z,32.92
2024-02-20T11:28:17.357Z,33.11
2024-02-20T11:30:49.097Z,33.17
2024-02-20T11:33:18.588Z,33.39
2024-02-20T11:35:48.277Z,33.35
2024-02-20T11:38:21.279Z,33.36
2024-02-20T11:40:49.245Z,33.29
2024-02-20T11:43:21.099Z,33.23
2024-02-20T11:45:51.456Z,33.28
2024-02-20T11:48:19.280Z,33.26
2024-02-20T11:50:48.344Z,33.34
2024-02-20T11:53:17.360Z,33.44
2024-02-20T11:55:55.458Z,33.20
2024-02-20T11:58:27.318Z,33.20
2024-02-20T12:01:05.193Z,33.25
2024-02-20T12:03:35.575Z,33.24
2024-02-20T12:06:09.294Z,33.28
2024-02-20T12:08:46.440Z,33.36
2024-02-20T12:11:23.782Z,33.13
2024-02-20T12:13:53.176Z,33.04
2024-02-20T12:16:31.134Z,33.10
2024-02-20T12:21:30.253Z,33.32
2024-02-20T12:23:59.044Z,33.39
2024-02-20T12:26:27.944Z,33.50
2024-02-20T12:28:56.805Z,33.56
2024-02-20T12:31:26.139Z,33.60
2024-02-20T12:33:54.180Z,33.71
2024-02-20T12:36:22.006Z,33.67
2024-02-20T12:38:49.838Z,33.71
2024-02-20T12:41:17.404Z,33.32
2024-02-20T12:43:45.185Z,33.47
2024-02-20T12:46:12.922Z,33.55
2024-02-20T12:48:42.313Z,33.65
2024-02-20T12:51:11.395Z,33.54
2024-02-20T12:53:39.798Z,33.66
2024-02-20T12:56:09.639Z,33.75
2024-02-20T12:58:37.234Z,33.81
2024-02-20T13:01:04.897Z,33.82
2024-02-20T13:03:32.674Z,33.97
2024-02-20T13:06:00.517Z,33.96
2024-02-20T13:08:28.148Z,33.66
2024-02-20T13:10:55.820Z,33.82
2024-02-20T13:13:23.493Z,33.63
2024-02-20T13:15:52.419Z,33.53
2024-02-20T13:18:20.167Z,33.69
2024-02-20T13:20:47.804Z,33.81
2024-02-20T13:23:15.469Z,33.80
2024-02-20T13:25:43.758Z,34.27
2024-02-20T13:28:12.847Z,33.85
2024-02-20T13:30:40.658Z,33.61
2024-02-20T13:33:09.333Z,33.57
2024-02-20T13:35:37.004Z,33.71
2024-02-20T13:38:04.820Z,33.76
2024-02-20T13:40:32.390Z,33.94
2024-02-20T13:43:01.711Z,33.84
2024-02-20T13:45:29.625Z,33.69
2024-02-20T13:47:57.255Z,33.69
2024-02-20T13:50:24.985Z,33.83
2024-02-20T13:52:54.407Z,33.89
2024-02-20T13:55:22.050Z,33.92
2024-02-20T13:57:49.723Z,34.04
2024-02-20T14:00:18.200Z,34.05
2024-02-20T14:02:46.026Z,34.07
2024-02-20T14:05:13.741Z,34.17
2024-02-20T14:07:42.058Z,34.02
2024-02-20T14:10:09.877Z,34.06
2024-02-20T14:12:37.667Z,34.03
2024-02-20T14:15:10.818Z,33.95
2024-02-20T14:17:38.950Z,33.96
2024-02-20T14:20:09.908Z,34.11
2024-02-20T14:22:37.487Z,34.16
2024-02-20T14:25:05.876Z,34.22
2024-02-20T14:27:33.702Z,34.26
2024-02-20T14:30:01.404Z,34.13
2024-02-20T14:32:29.058Z,34.32
2024-02-20T14:34:56.703Z,34.18
2024-02-20T14:37:24.377Z,34.09
2024-02-20T14:39:51.874Z,34.02
2024-02-20T14:42:19.546Z,34.13
2024-02-20T14:44:47.026Z,34.08
2024-02-20T14:47:14.732Z,34.02
2024-02-20T14:49:42.459Z,34.10
2024-02-20T15:05:58.567Z,34.34
2024-02-20T15:08:27.663Z,34.40
2024-02-20T15:10:56.704Z,34.45
2024-02-20T15:13:24.349Z,34.61
2024-02-20T15:15:52.292Z,34.47
2024-02-20T15:18:20.197Z,34.62
2024-02-20T15:20:48.229Z,34.63
2024-02-20T15:23:17.360Z,34.75
2024-02-20T15:25:47.074Z,34.73
2024-02-20T15:28:15.014Z,34.63
2024-02-20T15:30:42.772Z,34.80
2024-02-20T15:33:10.592Z,34.78
2024-02-20T15:35:38.492Z,34.90
2024-02-20T15:38:06.238Z,34.91
2024-02-20T15:40:41.126Z,34.90
2024-02-20T15:43:15.202Z,34.98
2024-02-20T15:45:44.488Z,35.21
2024-02-20T15:48:13.157Z,35.22
2024-02-20T15:50:44.415Z,35.22
2024-02-20T15:53:20.543Z,35.23
2024-02-20T15:55:48.643Z,35.20
2024-02-20T15:58:17.227Z,35.32
2024-02-20T16:00:45.364Z,35.11
2024-02-20T16:03:14.206Z,35.33
2024-02-20T16:05:42.015Z,35.31
2024-02-20T16:08:15.172Z,35.41
2024-02-20T16:10:42.793Z,35.38
2024-02-20T16:13:10.537Z,35.60
2024-02-20T16:15:38.174Z,35.54
2024-02-20T16:18:06.793Z,35.84
2024-02-20T16:20:34.757Z,35.99
2024-02-20T16:23:03.100Z,35.84
2024-02-20T16:25:31.000Z,35.95
2024-02-20T16:27:58.967Z,35.88
2024-02-20T16:30:26.608Z,35.74
2024-02-20T16:32:54.216Z,35.85
2024-02-20T16:35:22.014Z,35.83
2024-02-20T16:37:49.847Z,36.03
2024-02-20T16:40:20.239Z,36.01
2024-02-20T16:42:48.510Z,36.10
2024-02-20T16:45:16.877Z,36.03
2024-02-20T16:47:45.081Z,36.09
2024-02-20T16:58:31.293Z,36.31
2024-02-20T17:00:59.025Z,36.31
2024-02-20T17:03:26.897Z,36.33
2024-02-20T17:05:54.579Z,36.35
2024-02-20T17:08:25.704Z,36.19
2024-02-20T17:10:53.917Z,36.07
2024-02-20T17:13:21.867Z,36.08
2024-02-20T17:15:49.736Z,36.05
2024-02-20T17:18:17.516Z,35.96
2024-02-20T17:20:45.205Z,35.94
2024-02-20T17:23:16.257Z,35.92
2024-02-20T17:25:44.584Z,35.96
2024-02-20T17:28:12.334Z,35.92
2024-02-20T17:30:40.165Z,35.82
2024-02-20T17:33:07.765Z,35.96
2024-02-20T17:35:35.557Z,35.96
2024-02-20T17:38:05.593Z,35.89
2024-02-20T17:40:35.209Z,35.85
2024-02-20T17:43:03.395Z,35.89
2024-02-20T17:45:32.099Z,35.95
2024-02-20T17:47:59.687Z,35.79
2024-02-20T17:50:29.132Z,35.71
2024-02-20T17:52:56.860Z,35.63
2024-02-20T17:55:27.494Z,35.51
2024-02-20T17:57:56.038Z,35.54
2024-02-20T18:00:23.701Z,35.56
2024-02-20T18:02:51.252Z,35.52
2024-02-20T18:05:18.856Z,35.44
2024-02-20T18:07:47.553Z,35.46
2024-02-20T18:10:15.517Z,35.52
2024-02-20T18:12:43.371Z,35.37
2024-02-20T18:15:11.201Z,35.34
2024-02-20T18:17:38.926Z,35.38
2024-02-20T18:20:07.372Z,35.38
2024-02-20T18:22:35.024Z,35.37
2024-02-20T18:25:04.235Z,35.42
2024-02-20T18:27:32.299Z,35.46
2024-02-20T18:29:59.862Z,35.58
2024-02-20T18:32:27.864Z,35.70
2024-02-20T18:34:55.598Z,35.66
2024-02-20T18:37:23.355Z,35.76
2024-02-20T18:39:51.535Z,35.77
2024-02-20T18:42:19.095Z,35.85
2024-02-20T18:44:46.779Z,35.79
2024-02-20T18:47:14.348Z,35.84
2024-02-20T18:49:43.236Z,35.82
2024-02-20T18:52:10.900Z,35.97
2024-02-20T18:57:06.213Z,35.94
2024-02-20T18:59:33.671Z,35.82
2024-02-20T19:02:07.887Z,35.82
2024-02-20T19:04:41.833Z,35.86
2024-02-20T19:07:09.417Z,35.80
2024-02-20T19:09:37.435Z,35.92
2024-02-20T19:12:06.044Z,35.99
2024-02-20T19:14:33.804Z,35.90
2024-02-20T19:17:01.426Z,36.02
2024-02-20T19:19:29.239Z,35.92
2024-02-20T19:21:57.360Z,36.00
2024-02-20T19:24:25.144Z,36.03
2024-02-20T19:26:53.055Z,35.95
2024-02-20T19:29:25.695Z,35.92
2024-02-20T19:31:53.522Z,36.04
2024-02-20T19:34:21.572Z,35.94
2024-02-20T19:36:49.301Z,36.03
2024-02-20T19:39:16.881Z,35.92
2024-02-20T19:41:44.454Z,35.94
2024-02-20T19:44:12.308Z,36.03
2024-02-20T19:46:40.129Z,35.92
2024-02-20T19:49:07.874Z,36.12
2024-02-20T19:51:35.600Z,36.07
2024-02-20T19:54:04.588Z,35.98
2024-02-20T19:56:32.338Z,36.09
2024-02-20T19:58:59.965Z,36.28
2024-02-20T20:01:27.734Z,36.44
2024-02-20T20:03:55.387Z,36.37
2024-02-20T20:06:24.213Z,36.37
2024-02-20T20:08:51.829Z,36.34
2024-02-20T20:11:19.563Z,36.28
2024-02-20T20:13:47.799Z,36.39
2024-02-20T20:16:15.819Z,36.37
2024-02-20T20:18:43.873Z,36.41
2024-02-20T20:21:12.375Z,36.40
2024-02-20T20:23:43.031Z,36.26
2024-02-20T20:26:12.024Z,36.35
2024-02-20T20:28:39.730Z,36.20
2024-02-20T20:31:07.412Z,36.31
2024-02-20T20:35:09.512Z,38.65
2024-02-20T20:37:37.229Z,36.62
2024-02-20T20:40:08.820Z,36.52
2024-02-20T20:42:36.903Z,36.47
2024-02-20T20:45:05.863Z,36.43
2024-02-20T20:47:36.600Z,36.33
2024-02-20T20:50:04.958Z,36.32
2024-02-20T20:52:32.997Z,36.18
2024-02-20T20:55:07.018Z,36.24
2024-02-20T20:57:34.572Z,36.08
2024-02-20T21:00:02.181Z,36.23
2024-02-20T21:02:29.643Z,36.07
2024-02-20T21:04:57.298Z,36.12
2024-02-20T21:07:25.223Z,36.04
2024-02-20T21:09:53.008Z,36.16
2024-02-20T21:12:20.888Z,36.23
2024-02-20T21:14:48.787Z,36.23
2024-02-20T21:17:16.421Z,36.26
2024-02-20T21:19:44.721Z,35.99
2024-02-20T21:22:12.731Z,36.12
2024-02-20T21:24:40.878Z,36.05
2024-02-20T21:27:08.542Z,35.94
2024-02-20T21:29:36.775Z,36.04
2024-02-20T21:32:04.934Z,36.09
2024-02-20T21:34:32.746Z,36.02
2024-02-20T21:37:00.678Z,36.09
2024-02-20T21:39:28.275Z,36.16
2024-02-20T21:41:56.390Z,36.16
2024-02-20T21:44:24.468Z,36.28
2024-02-20T21:54:29.865Z,36.36
2024-02-20T21:56:57.737Z,36.47
2024-02-20T21:59:25.484Z,36.49
2024-02-20T22:01:53.183Z,36.51
2024-02-20T22:04:21.191Z,36.63
2024-02-20T22:06:49.178Z,36.61
2024-02-20T22:17:00.138Z,36.77
2024-02-20T22:19:28.051Z,36.75
2024-02-20T22:21:56.185Z,36.81
2024-02-20T22:24:23.848Z,36.86
2024-02-20T22:26:51.685Z,36.88
2024-02-20T22:29:19.385Z,36.99
2024-02-20T22:31:47.129Z,36.99
2024-02-20T22:34:14.803Z,37.07
2024-02-20T22:36:42.684Z,37.18
2024-02-20T22:39:10.586Z,37.18
2024-02-20T22:41:38.312Z,37.50
2024-02-20T22:44:06.075Z,37.48
2024-02-20T22:46:34.759Z,37.54
2024-02-20T22:49:04.665Z,37.52
2024-02-20T22:51:32.473Z,37.72
2024-02-20T22:54:01.961Z,37.73
2024-02-20T22:56:31.280Z,38.02
2024-02-20T22:58:59.036Z,38.15
2024-02-20T23:01:27.098Z,38.01
2024-02-20T23:03:54.847Z,37.94
2024-02-20T23:06:22.590Z,38.10
2024-02-20T23:08:50.284Z,38.30
2024-02-20T23:19:02.111Z,38.50
2024-02-20T23:21:29.801Z,38.34
2024-02-20T23:23:57.361Z,38.31
2024-02-20T23:26:25.035Z,38.32
2024-02-20T23:28:52.668Z,38.23
2024-02-20T23:31:21.977Z,38.32
2024-02-20T23:33:49.735Z,38.26
2024-02-20T23:36:17.420Z,38.25
2024-02-20T23:38:46.522Z,38.25
2024-02-20T23:41:13.977Z,38.22
2024-02-20T23:43:41.585Z,37.97
2024-02-20T23:46:09.310Z,37.99
2024-02-20T23:48:36.923Z,37.94
2024-02-20T23:51:04.767Z,37.98
2024-02-20T23:53:32.220Z,37.97
2024-02-20T23:55:59.801Z,38.02
